Time;durP1;ratioP1;P1;durP2;ratioP2;P2;SDS_P1;SDS_P2;PMS_P1;PMS_P2;Temp;Humidity;BMP_temperature;BMP_pressure;BME280_temperature;BME280_humidity;BME280_pressure;Samples;Min_cycle;Max_cycle;Signal;HPM_P1;HPM_P2
2023/09/29 00:01:43;;;;;;;5.05;4.55;;;;;;;24.08;43.18;95546.00;6044217;28;109051;-63
2023/09/29 00:04:46;;;;;;;8.10;4.80;;;;;;;24.03;43.31;95545.34;6062627;28;109076;-62
2023/09/29 00:07:51;;;;;;;7.80;4.47;;;;;;;24.02;43.38;95531.16;6063145;28;109004;-62
2023/09/29 00:10:56;;;;;;;5.65;4.30;;;;;;;24.06;43.15;95542.03;6057315;28;108940;-62
2023/09/29 00:13:59;;;;;;;7.70;4.50;;;;;;;24.02;43.11;95541.06;6057022;28;109006;-63
2023/09/29 00:17:02;;;;;;;6.78;4.50;;;;;;;24.04;43.19;95538.91;6063074;28;109063;-63
2023/09/29 00:20:12;;;;;;;6.47;4.20;;;;;;;24.02;43.07;95535.72;6063351;28;108958;-63
2023/09/29 00:23:17;;;;;;;8.47;4.30;;;;;;;24.00;43.14;95538.69;6050395;28;109350;-62
2023/09/29 00:26:21;;;;;;;5.47;4.10;;;;;;;24.03;43.15;95532.75;6062427;28;108921;-62
2023/09/29 00:29:24;;;;;;;7.13;5.38;;;;;;;24.03;42.93;95527.41;6063314;28;108971;-62
2023/09/29 00:32:27;;;;;;;5.20;4.22;;;;;;;24.01;43.20;95532.25;6062284;28;109026;-63
2023/09/29 00:35:33;;;;;;;7.03;4.80;;;;;;;24.02;43.14;95533.03;6050687;28;108908;-62
2023/09/29 00:38:36;;;;;;;7.10;4.47;;;;;;;24.00;43.19;95538.69;6063162;28;108907;-60
2023/09/29 00:41:41;;;;;;;5.32;4.38;;;;;;;24.02;42.81;95541.06;6061906;28;108989;-60
2023/09/29 00:44:44;;;;;;;7.13;4.82;;;;;;;23.99;42.93;95533.63;6060905;28;108939;-62
2023/09/29 00:47:50;;;;;;;4.80;4.10;;;;;;;23.98;42.91;95537.41;6055281;28;109216;-60
2023/09/29 00:50:53;;;;;;;6.50;4.32;;;;;;;23.99;42.92;95536.28;6062267;28;108942;-60
2023/09/29 00:53:57;;;;;;;9.30;4.60;;;;;;;23.97;43.13;95531.25;6061013;28;109276;-60
2023/09/29 00:57:05;;;;;;;6.15;4.72;;;;;;;23.97;43.18;95523.25;6050599;28;109179;-60
2023/09/29 01:00:14;;;;;;;5.90;4.50;;;;;;;23.99;43.28;95533.63;6061675;28;109195;-60
2023/09/29 01:03:21;;;;;;;7.47;5.60;;;;;;;23.96;42.71;95526.22;6063200;28;108817;-60
2023/09/29 01:06:24;;;;;;;6.97;5.07;;;;;;;23.95;43.09;95530.78;6059105;28;108928;-60
2023/09/29 01:09:27;;;;;;;7.43;5.10;;;;;;;23.96;43.07;95528.88;6049419;28;110853;-61
2023/09/29 01:12:34;;;;;;;6.20;4.70;;;;;;;23.95;42.70;95527.31;6058755;28;109148;-60
2023/09/29 01:15:39;;;;;;;5.80;4.60;;;;;;;23.93;42.79;95534.84;6059080;28;109123;-60
2023/09/29 01:18:43;;;;;;;5.32;4.80;;;;;;;23.90;43.11;95525.56;6067116;28;108909;-60
2023/09/29 01:21:46;;;;;;;7.00;4.95;;;;;;;23.95;42.73;95530.00;6054626;28;108860;-61
2023/09/29 01:24:51;;;;;;;5.90;4.43;;;;;;;23.89;43.11;95527.44;6066319;28;108910;-60
2023/09/29 01:27:55;;;;;;;6.13;4.90;;;;;;;23.89;42.87;95532.00;6064493;28;108952;-60
2023/09/29 01:30:58;;;;;;;6.90;4.50;;;;;;;23.88;42.82;95528.53;6055142;28;109166;-60
2023/09/29 01:34:05;;;;;;;6.73;4.83;;;;;;;23.89;43.20;95532.00;6061254;28;109304;-60
2023/09/29 01:37:13;;;;;;;7.82;5.00;;;;;;;23.92;43.06;95527.94;6057084;28;109032;-60
2023/09/29 01:40:17;;;;;;;6.43;4.78;;;;;;;23.89;42.78;95532.78;6062223;28;108929;-60
2023/09/29 01:43:23;;;;;;;7.18;4.68;;;;;;;23.88;42.72;95533.88;6055441;28;109053;-62
2023/09/29 01:46:26;;;;;;;5.45;4.80;;;;;;;23.89;43.08;95532.00;6064146;28;109149;-60
2023/09/29 01:49:29;;;;;;;6.07;4.70;;;;;;;23.86;42.80;95533.41;6062041;28;108916;-61
2023/09/29 01:52:33;;;;;;;6.63;4.40;;;;;;;23.83;43.01;95533.22;6064456;28;109039;-61
2023/09/29 01:55:37;;;;;;;4.93;4.30;;;;;;;23.82;42.85;95540.44;6035511;28;108928;-62
2023/09/29 01:58:40;;;;;;;6.68;4.72;;;;;;;23.81;42.84;95536.19;6062975;28;109147;-60
2023/09/29 02:01:44;;;;;;;6.18;4.57;;;;;;;23.84;43.10;95527.56;6063660;28;108963;-60
2023/09/29 02:04:47;;;;;;;5.78;4.70;;;;;;;23.84;43.16;95532.91;6059715;28;108964;-60
2023/09/29 02:07:51;;;;;;;5.80;4.65;;;;;;;23.83;42.90;95527.88;6058978;28;109014;-61
2023/09/29 02:10:56;;;;;;;7.15;4.50;;;;;;;23.82;42.70;95537.75;6063607;28;108904;-60
2023/09/29 02:14:00;;;;;;;6.90;4.30;;;;;;;23.80;43.19;95536.50;6055800;28;108936;-61
2023/09/29 02:17:04;;;;;;;6.77;4.57;;;;;;;23.79;42.73;95535.72;6042300;28;109171;-60
2023/09/29 02:20:14;;;;;;;6.40;4.50;;;;;;;23.79;42.45;95540.25;6051458;28;109116;-61
2023/09/29 02:23:17;;;;;;;5.60;4.40;;;;;;;23.80;42.40;95537.28;6062317;28;108911;-60
2023/09/29 02:26:22;;;;;;;6.78;4.65;;;;;;;23.79;42.48;95541.06;6063887;28;108945;-60
2023/09/29 02:29:25;;;;;;;6.50;4.40;;;;;;;23.81;42.86;95530.84;6053269;28;108933;-61
2023/09/29 02:32:29;;;;;;;6.38;4.50;;;;;;;23.84;43.00;95543.59;6063939;28;108985;-61
2023/09/29 02:35:32;;;;;;;5.43;4.30;;;;;;;23.86;42.83;95543.31;6065222;28;109279;-61
2023/09/29 02:38:37;;;;;;;7.00;4.30;;;;;;;23.85;42.74;95545.16;6059914;28;109329;-61
2023/09/29 02:41:41;;;;;;;6.30;4.50;;;;;;;23.87;42.75;95550.25;6052117;28;108938;-63
2023/09/29 02:44:45;;;;;;;6.07;4.13;;;;;;;23.87;42.87;95547.56;6048700;28;109388;-61
2023/09/29 02:47:48;;;;;;;5.13;4.28;;;;;;;23.87;42.87;95545.69;6065176;28;109147;-61
2023/09/29 02:50:52;;;;;;;6.07;4.30;;;;;;;23.87;42.93;95550.25;6053679;28;108980;-61
2023/09/29 02:53:55;;;;;;;6.63;4.35;;;;;;;23.87;42.99;95550.25;6065220;28;109038;-61
2023/09/29 02:57:00;;;;;;;6.20;4.00;;;;;;;23.85;43.00;95553.19;6064024;28;109014;-62
2023/09/29 03:00:18;;;;;;;9.23;6.10;;;;;;;23.80;42.69;95560.53;6062831;28;108968;-57
2023/09/29 03:03:26;;;;;;;9.02;8.13;;;;;;;23.65;42.58;95559.03;6050868;28;110052;-57
2023/09/29 03:06:29;;;;;;;9.07;6.20;;;;;;;23.53;42.28;95554.22;6064895;28;108820;-57
2023/09/29 03:09:33;;;;;;;7.93;5.20;;;;;;;23.48;42.56;95558.88;6064465;28;108989;-58
2023/09/29 03:12:38;;;;;;;9.07;5.18;;;;;;;23.44;42.13;95563.25;6059290;28;109194;-56
2023/09/29 03:15:43;;;;;;;6.70;5.00;;;;;;;23.39;42.32;95558.03;6058053;28;109317;-60
2023/09/29 03:18:47;;;;;;;5.70;4.30;;;;;;;23.18;42.35;95560.31;6059678;28;108946;-60
2023/09/29 03:21:50;;;;;;;8.85;4.70;;;;;;;23.16;42.30;95563.28;6047413;28;109016;-60
2023/09/29 03:24:53;;;;;;;8.75;5.88;;;;;;;23.29;41.89;95559.81;6053734;28;108898;-60
2023/09/29 03:27:59;;;;;;;9.15;7.00;;;;;;;23.36;41.62;95555.97;6061137;28;108969;-59
2023/09/29 03:31:07;;;;;;;9.63;7.80;;;;;;;23.36;41.39;95555.97;6062096;28;111173;-59
2023/09/29 03:34:10;;;;;;;10.93;8.10;;;;;;;23.39;42.15;95560.72;6048556;28;109077;-59
2023/09/29 03:37:13;;;;;;;14.80;13.40;;;;;;;23.39;41.69;95558.03;6044965;28;108954;-59
2023/09/29 03:40:18;;;;;;;27.95;25.20;;;;;;;23.39;41.39;95556.16;6062481;28;109157;-60
2023/09/29 03:43:23;;;;;;;18.73;16.80;;;;;;;23.42;41.31;95552.09;6057782;28;109053;-60
2023/09/29 03:46:28;;;;;;;18.40;16.60;;;;;;;23.46;41.48;95559.19;6063658;28;108862;-59
2023/09/29 03:49:33;;;;;;;13.85;12.45;;;;;;;23.47;41.06;95555.41;6053860;28;108937;-60
2023/09/29 03:52:39;;;;;;;12.82;10.35;;;;;;;23.44;41.25;95557.91;6063943;28;108926;-59
2023/09/29 03:55:42;;;;;;;11.73;10.00;;;;;;;23.41;41.07;95561.19;6062418;28;109839;-60
2023/09/29 03:58:47;;;;;;;9.90;8.90;;;;;;;23.39;41.73;95563.38;6051928;28;109319;-60
2023/09/29 04:01:50;;;;;;;11.57;8.75;;;;;;;23.35;41.41;95554.38;6054954;28;109005;-60
2023/09/29 04:04:53;;;;;;;13.65;12.05;;;;;;;23.17;41.26;95558.72;6059687;28;108959;-60
2023/09/29 04:07:56;;;;;;;10.40;7.60;;;;;;;23.15;43.56;95553.69;6063145;28;108814;-59
2023/09/29 04:11:01;;;;;;;11.60;9.95;;;;;;;23.29;41.77;95556.38;6052503;28;108920;-59
2023/09/29 04:14:06;;;;;;;14.00;11.70;;;;;;;23.48;41.80;95551.66;6063654;28;109106;-59
2023/09/29 04:17:17;;;;;;;12.50;9.10;;;;;;;23.64;41.73;95557.44;6061426;28;108907;-59
2023/09/29 04:20:20;;;;;;;12.77;9.70;;;;;;;23.63;42.11;95549.72;6063619;28;108873;-60
2023/09/29 04:23:24;;;;;;;11.40;9.40;;;;;;;23.58;42.00;95551.44;6052480;28;108888;-60
2023/09/29 04:26:27;;;;;;;9.80;8.75;;;;;;;23.53;41.99;95556.91;6063476;28;108927;-59
2023/09/29 04:29:31;;;;;;;10.65;8.88;;;;;;;23.53;42.12;95553.44;6062355;28;109085;-59
2023/09/29 04:32:34;;;;;;;10.10;8.67;;;;;;;23.53;42.01;95561.47;6056007;28;108911;-59
2023/09/29 04:35:38;;;;;;;9.70;8.80;;;;;;;23.54;42.39;95563.81;6058387;28;109254;-59
2023/09/29 04:38:45;;;;;;;10.40;9.10;;;;;;;23.54;41.95;95565.72;6063156;28;108932;-58
2023/09/29 04:41:48;;;;;;;10.00;9.00;;;;;;;23.54;42.10;95566.50;6063282;28;108864;-60
2023/09/29 04:44:53;;;;;;;9.90;8.80;;;;;;;23.52;42.35;95565.19;6051633;28;108930;-59
2023/09/29 04:47:58;;;;;;;9.32;8.43;;;;;;;23.54;42.25;95565.72;6062603;28;108901;-60
2023/09/29 04:51:01;;;;;;;9.65;8.65;;;;;;;23.54;42.22;95571.06;6063138;28;108930;-60
2023/09/29 04:54:05;;;;;;;8.50;7.80;;;;;;;23.46;42.64;95566.41;6062821;28;108965;-61
2023/09/29 04:57:09;;;;;;;9.35;8.35;;;;;;;23.53;42.55;95582.84;6052243;28;109233;-59
2023/09/29 05:00:15;;;;;;;9.30;8.40;;;;;;;23.53;42.66;95578.28;6063050;28;108973;-59
2023/09/29 05:03:18;;;;;;;9.57;7.70;;;;;;;23.54;42.62;95587.88;6061810;28;109330;-59
2023/09/29 05:06:23;;;;;;;8.85;8.05;;;;;;;23.55;42.17;95591.34;6057720;28;108916;-59
2023/09/29 05:09:27;;;;;;;8.80;7.90;;;;;;;23.56;42.67;95588.34;6057391;28;108965;-59
2023/09/29 05:12:30;;;;;;;8.88;8.07;;;;;;;23.59;42.42;95601.09;6062553;28;108963;-59
2023/09/29 05:15:36;;;;;;;8.50;7.68;;;;;;;23.56;42.21;95587.56;6062938;28;109032;-59
2023/09/29 05:18:39;;;;;;;8.32;7.53;;;;;;;23.57;42.42;95597.16;6051283;28;109417;-60
2023/09/29 05:21:43;;;;;;;8.20;7.40;;;;;;;23.57;42.55;95587.25;6062833;28;109228;-59
2023/09/29 05:24:46;;;;;;;9.52;7.68;;;;;;;23.60;42.75;95599.22;6062821;28;108881;-60
2023/09/29 05:27:49;;;;;;;7.57;6.88;;;;;;;23.58;42.32;95590.72;6062600;28;108943;-60
2023/09/29 05:30:56;;;;;;;8.00;7.30;;;;;;;23.62;42.48;95599.72;6051432;28;108971;-60
2023/09/29 05:33:59;;;;;;;8.02;7.32;;;;;;;23.63;42.58;95600.50;6061825;28;108996;-61
2023/09/29 05:37:03;;;;;;;7.90;7.20;;;;;;;23.65;42.35;95596.44;6062143;28;108926;-59
2023/09/29 05:40:07;;;;;;;8.00;7.15;;;;;;;23.67;42.42;95604.13;6062099;28;108929;-59
2023/09/29 05:43:11;;;;;;;8.05;7.35;;;;;;;23.66;42.46;95599.88;6051736;28;109022;-60
2023/09/29 05:46:18;;;;;;;7.80;7.10;;;;;;;23.67;42.29;95604.94;6062597;28;108817;-59
2023/09/29 05:49:21;;;;;;;7.60;6.90;;;;;;;23.73;42.59;95605.63;6061835;28;108941;-61
2023/09/29 05:52:24;;;;;;;8.52;6.10;;;;;;;23.79;42.42;95612.41;6051086;28;108931;-60
2023/09/29 05:55:27;;;;;;;10.88;6.97;;;;;;;23.76;41.72;95603.13;6061294;28;108946;-59
2023/09/29 05:58:30;;;;;;;8.75;6.45;;;;;;;23.73;42.23;95601.06;6064386;28;109105;-60
2023/09/29 06:01:35;;;;;;;7.82;6.70;;;;;;;23.74;42.13;95601.84;6066341;28;108985;-60
2023/09/29 06:04:38;;;;;;;8.25;6.68;;;;;;;23.76;42.29;95607.69;6054122;28;109964;-60
2023/09/29 06:07:41;;;;;;;7.72;6.20;;;;;;;23.76;42.33;95603.13;6065488;28;109004;-59
2023/09/29 06:10:45;;;;;;;6.60;5.90;;;;;;;23.78;41.96;95600.94;6065637;28;109005;-60
2023/09/29 06:13:48;;;;;;;7.28;6.40;;;;;;;23.78;42.18;95603.63;6065399;28;108927;-60
2023/09/29 06:16:53;;;;;;;7.65;6.22;;;;;;;23.88;42.23;95603.38;6055107;28;108962;-60
2023/09/29 06:19:56;;;;;;;6.80;6.20;;;;;;;23.96;42.00;95606.41;6065688;28;109043;-59
2023/09/29 06:22:59;;;;;;;7.10;6.40;;;;;;;24.01;41.87;95609.00;6065662;28;108905;-59
2023/09/29 06:26:02;;;;;;;6.97;6.28;;;;;;;24.08;41.64;95606.69;6060699;28;108940;-59
2023/09/29 06:29:06;;;;;;;7.00;6.30;;;;;;;24.13;41.57;95609.25;6059178;28;109046;-56
2023/09/29 06:32:10;;;;;;;7.38;6.03;;;;;;;24.16;41.63;95601.41;6065693;28;108946;-56
2023/09/29 06:35:14;;;;;;;7.22;5.90;;;;;;;24.23;41.55;95594.84;6064593;28;108966;-55
2023/09/29 06:38:18;;;;;;;6.80;6.10;;;;;;;24.24;41.70;95602.56;6054378;28;110246;-56
2023/09/29 06:41:21;;;;;;;6.40;5.80;;;;;;;24.30;41.65;95595.97;6065490;28;108886;-56
2023/09/29 06:44:24;;;;;;;6.60;6.00;;;;;;;24.35;41.26;95601.19;6064975;28;109093;-57
2023/09/29 06:47:29;;;;;;;6.25;5.22;;;;;;;24.43;41.17;95605.03;6065044;28;109059;-57
2023/09/29 06:50:32;;;;;;;5.80;5.30;;;;;;;24.48;41.22;95603.00;6054599;28;109160;-58
2023/09/29 06:53:36;;;;;;;6.20;5.60;;;;;;;24.56;41.16;95601.47;6064784;28;108912;-56
2023/09/29 06:56:39;;;;;;;6.00;5.40;;;;;;;24.63;41.00;95604.50;6064335;28;108992;-57
2023/09/29 06:59:42;;;;;;;6.18;5.57;;;;;;;24.68;41.08;95604.38;6064264;28;108937;-59
2023/09/29 07:02:47;;;;;;;5.65;5.10;;;;;;;24.75;40.93;95601.28;6056482;28;108893;-56
2023/09/29 07:05:50;;;;;;;5.55;5.05;;;;;;;24.79;40.78;95607.56;6064305;28;108873;-56
2023/09/29 07:08:53;;;;;;;5.73;5.00;;;;;;;24.84;40.64;95610.09;6063882;28;108894;-57
2023/09/29 07:11:57;;;;;;;5.55;5.05;;;;;;;24.92;40.75;95612.03;6055006;28;108929;-61
2023/09/29 07:15:00;;;;;;;5.68;5.18;;;;;;;24.97;40.78;95611.91;6064158;28;108749;-56
2023/09/29 07:18:05;;;;;;;5.60;5.00;;;;;;;25.05;40.65;95599.66;6064143;28;109064;-55
2023/09/29 07:21:08;;;;;;;5.57;5.00;;;;;;;25.08;40.53;95605.16;6064313;28;108908;-56
2023/09/29 07:24:12;;;;;;;5.10;4.60;;;;;;;25.17;40.66;95609.75;6054790;28;109131;-55
2023/09/29 07:27:16;;;;;;;5.35;4.65;;;;;;;25.24;40.42;95607.41;6064625;28;108961;-56
2023/09/29 07:30:20;;;;;;;5.50;5.00;;;;;;;25.26;40.52;95610.56;6063422;28;109347;-56
2023/09/29 07:33:24;;;;;;;5.55;4.70;;;;;;;25.33;40.31;95608.19;6063873;28;109019;-56
2023/09/29 07:36:29;;;;;;;5.20;4.40;;;;;;;25.38;40.29;95613.47;6052481;28;109218;-57
2023/09/29 07:39:32;;;;;;;5.40;4.60;;;;;;;25.44;40.30;95611.41;6064352;28;108948;-59
2023/09/29 07:42:35;;;;;;;5.03;4.53;;;;;;;25.48;40.33;95615.81;6063909;28;108965;-59
2023/09/29 07:45:39;;;;;;;4.80;4.40;;;;;;;25.53;40.18;95610.31;6058721;28;109002;-64
2023/09/29 07:48:43;;;;;;;5.65;4.70;;;;;;;25.53;40.31;95612.19;6058513;28;108985;-59
2023/09/29 07:51:49;;;;;;;5.07;4.40;;;;;;;25.48;40.37;95612.34;6064027;28;108926;-60
2023/09/29 07:54:52;;;;;;;5.00;4.50;;;;;;;25.44;40.87;95614.09;6063212;28;108961;-60
2023/09/29 07:57:56;;;;;;;4.80;4.30;;;;;;;25.34;41.19;95612.47;6053039;28;109092;-59
2023/09/29 08:00:59;;;;;;;5.70;4.70;;;;;;;25.29;41.04;95615.28;6063998;28;109213;-60
2023/09/29 08:04:04;;;;;;;4.60;4.20;;;;;;;25.22;41.12;95609.63;6063365;28;108992;-59
2023/09/29 08:07:08;;;;;;;4.63;4.10;;;;;;;25.20;41.06;95607.22;6062999;28;108909;-59
2023/09/29 08:10:11;;;;;;;4.50;4.10;;;;;;;25.16;41.41;95610.84;6054254;28;110324;-60
2023/09/29 08:13:14;;;;;;;5.05;4.40;;;;;;;25.05;41.75;95605.00;6063304;28;109035;-59
2023/09/29 08:16:17;;;;;;;5.97;4.40;;;;;;;25.02;41.22;95603.72;6063946;28;108864;-59
2023/09/29 08:19:22;;;;;;;5.20;4.40;;;;;;;25.04;41.22;95612.25;6061555;28;109127;-58
2023/09/29 08:22:26;;;;;;;4.45;4.00;;;;;;;25.07;41.17;95608.94;6055621;28;108976;-59
2023/09/29 08:25:43;;;;;;;4.70;4.28;;;;;;;25.05;41.24;95607.69;6062947;28;108942;-60
2023/09/29 08:28:46;;;;;;;5.23;4.30;;;;;;;25.00;41.18;95603.22;6063488;28;109238;-60
2023/09/29 08:31:49;;;;;;;4.43;4.03;;;;;;;24.99;41.09;95601.66;6053842;28;110057;-59
2023/09/29 08:34:53;;;;;;;5.10;4.15;;;;;;;24.97;41.31;95595.81;6063191;28;109090;-58
2023/09/29 08:37:57;;;;;;;5.50;4.00;;;;;;;24.93;41.32;95600.22;6062031;28;108916;-59
2023/09/29 08:41:03;;;;;;;5.20;4.03;;;;;;;24.91;41.54;95593.63;6062586;28;108993;-59
2023/09/29 08:44:10;;;;;;;5.00;4.10;;;;;;;24.89;41.26;95596.59;6052734;28;112238;-61
2023/09/29 08:47:19;;;;;;;4.35;3.92;;;;;;;24.89;41.14;95604.63;6062936;28;108913;-59
2023/09/29 08:50:25;;;;;;;4.90;3.83;;;;;;;24.87;41.35;95592.66;6063141;28;109010;-54
2023/09/29 08:53:29;;;;;;;4.00;3.60;;;;;;;24.86;41.56;95601.75;6059548;28;108953;-56
2023/09/29 08:56:32;;;;;;;4.30;3.90;;;;;;;24.86;41.67;95596.41;6056311;28;108909;-55
2023/09/29 08:59:38;;;;;;;3.90;3.60;;;;;;;24.85;41.50;95600.19;6062204;28;109186;-56
2023/09/29 09:02:43;;;;;;;4.18;3.78;;;;;;;24.83;41.64;95597.03;6062556;28;108885;-56
2023/09/29 09:05:48;;;;;;;4.57;3.80;;;;;;;24.82;41.87;95593.56;6052265;28;109874;-57
2023/09/29 09:08:53;;;;;;;4.45;3.70;;;;;;;24.79;41.73;95594.97;6061342;28;108956;-57
2023/09/29 09:11:56;;;;;;;4.68;3.80;;;;;;;24.79;41.52;95599.53;6062645;28;108971;-56
2023/09/29 09:14:59;;;;;;;4.18;3.78;;;;;;;24.76;41.70;95603.63;6062584;28;109381;-57
2023/09/29 09:18:03;;;;;;;4.45;3.80;;;;;;;24.77;41.59;95599.06;6051503;28;109051;-58
2023/09/29 09:21:07;;;;;;;4.00;3.60;;;;;;;24.75;41.84;95596.72;6061801;28;109085;-57
2023/09/29 09:24:21;;;;;;;3.70;3.40;;;;;;;24.74;41.70;95605.84;6062430;28;109247;-56
2023/09/29 09:27:24;;;;;;;3.92;3.53;;;;;;;24.73;41.78;95593.56;6061815;28;109018;-56
2023/09/29 09:30:27;;;;;;;4.10;3.70;;;;;;;24.71;41.98;95592.28;6051162;28;109252;-56
2023/09/29 09:33:31;;;;;;;3.70;3.30;;;;;;;24.72;41.62;95601.91;6065024;28;108861;-56
2023/09/29 09:36:44;;;;;;;4.90;3.38;;;;;;;24.68;41.79;95595.56;6066275;28;108889;-57
2023/09/29 09:39:48;;;;;;;4.03;3.50;;;;;;;24.72;41.83;95599.22;6053834;28;108922;-56
2023/09/29 09:42:53;;;;;;;4.30;3.60;;;;;;;24.68;42.06;95598.22;6065509;28;108917;-57
2023/09/29 09:46:03;;;;;;;4.68;3.70;;;;;;;24.66;41.24;95595.03;6065472;28;108978;-57
2023/09/29 09:49:13;;;;;;;4.43;4.03;;;;;;;24.66;41.59;95597.72;6065657;28;109243;-57
2023/09/29 09:52:24;;;;;;;4.40;4.00;;;;;;;24.65;41.61;95590.78;6055669;28;108846;-56
2023/09/29 09:55:34;;;;;;;4.30;3.90;;;;;;;24.64;41.65;95592.69;6065448;28;108950;-59
2023/09/29 09:58:38;;;;;;;4.60;3.78;;;;;;;24.65;41.70;95596.16;6065379;28;108962;-57
2023/09/29 10:01:42;;;;;;;4.07;3.67;;;;;;;24.65;41.17;95593.47;6062179;28;108925;-58
2023/09/29 10:04:47;;;;;;;4.70;3.70;;;;;;;24.67;41.52;95586.72;6059777;28;109025;-56
2023/09/29 10:07:55;;;;;;;4.15;3.72;;;;;;;24.66;41.42;95576.31;6065453;28;108966;-58
2023/09/29 10:11:12;;;;;;;4.43;4.00;;;;;;;24.64;41.10;95575.84;6064505;28;109111;-56
2023/09/29 10:14:15;;;;;;;4.72;4.32;;;;;;;24.62;41.15;95581.50;6055169;28;108850;-59
2023/09/29 10:17:20;;;;;;;8.48;4.60;;;;;;;24.62;41.45;95575.34;6065947;28;108874;-57
2023/09/29 10:20:26;;;;;;;5.65;4.88;;;;;;;24.64;41.62;95563.25;6065052;28;108929;-56
2023/09/29 10:23:31;;;;;;;5.68;5.18;;;;;;;24.65;41.17;95561.34;6065715;28;108826;-56
2023/09/29 10:26:43;;;;;;;5.10;4.60;;;;;;;24.66;41.06;95565.59;6054229;28;108968;-57
2023/09/29 10:29:50;;;;;;;5.60;5.10;;;;;;;24.68;41.13;95558.88;6064999;28;109251;-56
2023/09/29 10:33:05;;;;;;;5.65;5.15;;;;;;;24.68;41.03;95548.16;6065989;28;109115;-58
2023/09/29 10:36:09;;;;;;;7.00;6.40;;;;;;;24.66;40.63;95539.63;6060312;28;109116;-58
2023/09/29 10:39:25;;;;;;;8.00;7.20;;;;;;;24.68;40.64;95542.03;6059704;28;108874;-56
2023/09/29 10:42:35;;;;;;;6.82;6.22;;;;;;;24.72;40.67;95541.13;6064237;28;108933;-56
2023/09/29 10:45:39;;;;;;;7.50;6.80;;;;;;;24.74;40.76;95532.78;6065035;28;109005;-56
2023/09/29 10:48:45;;;;;;;7.57;6.88;;;;;;;24.73;40.15;95539.22;6054112;28;108964;-56
2023/09/29 10:51:49;;;;;;;6.50;5.90;;;;;;;24.78;40.76;95529.16;6064723;28;108889;-56
2023/09/29 10:54:56;;;;;;;6.80;6.20;;;;;;;24.79;40.59;95521.91;6063827;28;109003;-56
2023/09/29 10:58:00;;;;;;;7.47;6.78;;;;;;;24.79;40.56;95524.59;6063562;28;108841;-56
2023/09/29 11:01:04;;;;;;;7.00;6.30;;;;;;;24.80;40.60;95523.50;6052540;28;109583;-57
2023/09/29 11:04:11;;;;;;;7.15;6.55;;;;;;;24.81;40.67;95518.94;6063629;28;108929;-57
2023/09/29 11:07:15;;;;;;;6.38;5.82;;;;;;;24.83;41.22;95514.84;6063479;28;108890;-57
2023/09/29 11:10:21;;;;;;;7.10;6.40;;;;;;;24.83;40.46;95511.38;6057777;28;108921;-60
2023/09/29 11:13:24;;;;;;;6.60;6.00;;;;;;;24.83;40.92;95506.81;6057033;28;109214;-59
2023/09/29 11:16:28;;;;;;;6.30;5.80;;;;;;;24.82;40.80;95510.59;6062724;28;108989;-60
2023/09/29 11:19:31;;;;;;;6.20;5.60;;;;;;;24.84;40.88;95497.66;6062613;28;108961;-60
2023/09/29 11:22:38;;;;;;;6.50;6.00;;;;;;;24.75;40.89;95495.00;6051514;28;108912;-60
2023/09/29 11:25:50;;;;;;;6.45;5.85;;;;;;;24.81;40.82;95492.94;6062743;28;108849;-59
2023/09/29 11:28:53;;;;;;;5.88;5.38;;;;;;;24.81;41.01;95508.22;6062245;28;108925;-60
2023/09/29 11:31:57;;;;;;;6.70;6.10;;;;;;;24.81;40.89;95498.31;6057040;28;108924;-59
2023/09/29 11:35:02;;;;;;;6.47;5.87;;;;;;;24.81;41.12;95497.50;6051318;28;109295;-59
2023/09/29 11:38:05;;;;;;;6.70;6.10;;;;;;;24.72;41.06;95497.50;6060636;28;108933;-59
2023/09/29 11:41:11;;;;;;;6.55;5.93;;;;;;;24.67;40.46;95498.38;6053298;28;109194;-59
2023/09/29 11:44:15;;;;;;;6.32;5.63;;;;;;;24.66;39.14;95486.09;6054981;28;109227;-59
2023/09/29 11:47:19;;;;;;;6.07;5.30;;;;;;;24.67;38.28;95489.56;6033245;28;109000;-59
2023/09/29 11:50:22;;;;;;;6.00;5.40;;;;;;;24.67;38.24;95481.53;6058392;28;108989;-60
2023/09/29 11:53:25;;;;;;;7.10;5.40;;;;;;;24.66;37.80;95475.41;6060668;28;109947;-60
2023/09/29 11:56:31;;;;;;;5.93;5.33;;;;;;;24.69;37.47;95482.03;5982536;28;1954537;-60
2023/09/29 11:59:35;;;;;;;5.97;5.30;;;;;;;24.71;37.68;95474.53;6062414;28;108914;-60
2023/09/29 12:02:39;;;;;;;6.28;5.30;;;;;;;24.72;37.42;95473.41;6057931;28;109207;-60
2023/09/29 12:05:44;;;;;;;5.43;4.93;;;;;;;24.71;37.33;95467.28;6049623;28;108898;-60
2023/09/29 12:08:47;;;;;;;5.55;5.05;;;;;;;24.73;37.43;95466.97;6051331;28;109863;-60
2023/09/29 12:11:52;;;;;;;5.40;4.90;;;;;;;24.70;37.50;95460.34;6061709;28;108979;-59
2023/09/29 12:14:55;;;;;;;6.30;4.80;;;;;;;24.74;37.32;95460.50;6052578;28;108993;-59
2023/09/29 12:17:59;;;;;;;5.78;5.18;;;;;;;24.71;37.52;95455.78;6058500;28;109622;-60
2023/09/29 12:21:07;;;;;;;5.60;5.00;;;;;;;24.64;37.67;95450.84;6052022;28;109371;-59
2023/09/29 12:24:11;;;;;;;5.88;4.70;;;;;;;24.61;37.90;95456.81;6059727;28;108988;-56
2023/09/29 12:27:15;;;;;;;5.70;4.45;;;;;;;24.64;37.72;95455.41;6062928;28;109031;-56
2023/09/29 12:30:19;;;;;;;4.90;4.40;;;;;;;24.65;37.81;95447.06;6052151;28;109412;-57
2023/09/29 12:33:23;;;;;;;5.30;4.23;;;;;;;24.65;37.62;95455.09;6062490;28;109086;-56
2023/09/29 12:36:27;;;;;;;4.63;4.22;;;;;;;24.65;37.91;95447.06;6063351;28;109024;-55
2023/09/29 12:39:30;;;;;;;5.30;4.80;;;;;;;24.65;38.25;95451.63;6062745;28;108936;-56
2023/09/29 12:42:34;;;;;;;5.13;4.63;;;;;;;24.65;38.12;95443.59;6051936;28;109104;-57
2023/09/29 12:45:38;;;;;;;4.55;4.00;;;;;;;24.64;38.02;95440.13;6062391;28;108896;-56
2023/09/29 12:48:41;;;;;;;5.35;4.85;;;;;;;24.63;38.35;95435.88;6062769;28;109111;-56
2023/09/29 12:51:44;;;;;;;4.65;4.00;;;;;;;24.64;38.36;95431.31;6062831;28;108865;-57
2023/09/29 12:55:02;;;;;;;4.80;4.00;;;;;;;24.60;38.55;95433.84;6051012;28;109541;-57
2023/09/29 12:58:07;;;;;;;5.00;4.10;;;;;;;24.61;38.67;95429.28;6062719;28;108897;-57
2023/09/29 13:01:11;;;;;;;5.00;4.50;;;;;;;24.60;38.51;95433.84;6062468;28;108762;-57
2023/09/29 13:04:14;;;;;;;4.20;3.80;;;;;;;24.61;38.88;95430.06;6053444;28;109525;-58
2023/09/29 13:07:17;;;;;;;4.53;4.13;;;;;;;24.60;38.89;95430.38;6063823;28;109038;-56
2023/09/29 13:10:20;;;;;;;4.50;4.10;;;;;;;24.59;39.03;95424.25;6066770;28;108925;-57
2023/09/29 13:13:25;;;;;;;5.00;4.10;;;;;;;24.59;39.15;95410.84;6066960;28;108962;-57
2023/09/29 13:16:28;;;;;;;5.30;4.80;;;;;;;24.56;39.20;95411.50;6055481;28;109038;-57
2023/09/29 13:19:31;;;;;;;5.00;4.50;;;;;;;24.60;39.02;95406.28;6066478;28;108952;-56
2023/09/29 13:22:35;;;;;;;4.40;4.00;;;;;;;24.59;39.26;95402.03;6066279;28;109001;-56
2023/09/29 13:25:38;;;;;;;4.25;3.88;;;;;;;24.62;39.38;95393.38;6066671;28;109068;-57
2023/09/29 13:28:42;;;;;;;4.40;4.00;;;;;;;24.61;39.33;95405.19;6054657;28;109114;-57
2023/09/29 13:31:45;;;;;;;4.55;4.10;;;;;;;24.60;39.52;95411.66;6066486;28;108856;-60
2023/09/29 13:34:50;;;;;;;4.70;3.80;;;;;;;24.59;39.51;95404.72;6066181;28;109054;-60
2023/09/29 13:37:53;;;;;;;4.07;3.77;;;;;;;24.56;39.35;95411.50;6060918;28;108870;-59
2023/09/29 13:40:56;;;;;;;4.10;3.63;;;;;;;24.56;39.67;95406.13;6060825;28;109516;-59
2023/09/29 13:44:01;;;;;;;4.55;3.80;;;;;;;24.56;39.59;95400.00;6066384;28;108863;-59
2023/09/29 13:47:04;;;;;;;4.30;4.00;;;;;;;24.55;39.99;95399.22;6065159;28;108904;-59
2023/09/29 13:50:11;;;;;;;4.60;4.20;;;;;;;24.55;39.60;95393.06;6055249;28;108927;-59
2023/09/29 13:53:14;;;;;;;4.50;4.10;;;;;;;24.55;40.20;95401.09;6066005;28;109170;-60
2023/09/29 13:56:19;;;;;;;4.30;3.90;;;;;;;24.54;39.72;95396.84;6065142;28;108901;-60
2023/09/29 13:59:23;;;;;;;4.00;3.70;;;;;;;24.54;40.29;95396.84;6066141;28;109005;-59
2023/09/29 14:02:26;;;;;;;4.20;3.80;;;;;;;24.52;39.95;95399.03;6055084;28;109096;-59
2023/09/29 14:05:37;;;;;;;3.85;3.47;;;;;;;24.49;40.40;95393.19;6065102;28;108977;-59
2023/09/29 14:08:40;;;;;;;4.20;3.80;;;;;;;24.50;40.12;95397.44;6066323;28;109035;-58
2023/09/29 14:11:43;;;;;;;4.40;3.78;;;;;;;24.49;40.30;95401.22;6063279;28;108929;-58
2023/09/29 14:14:48;;;;;;;3.80;3.50;;;;;;;24.48;40.07;95399.66;6057950;28;108954;-59
2023/09/29 14:17:51;;;;;;;4.10;3.70;;;;;;;24.49;40.06;95400.44;6064085;28;109055;-59